createdAt,value
2018-11-27T05:01:05.099Z,26.60
2018-11-27T05:03:27.797Z,23.50
2018-11-27T05:05:50.454Z,27.30
2018-11-27T05:08:13.089Z,28.20
2018-11-27T05:10:35.750Z,28.00
2018-11-27T05:12:58.425Z,28.70
2018-11-27T06:01:39.034Z,21.13
2018-11-27T06:04:01.760Z,21.67
2018-11-27T06:06:24.418Z,20.90
2018-11-27T06:08:47.122Z,23.07
2018-11-27T06:11:09.841Z,22.93
2018-11-27T06:13:32.525Z,22.50
2018-11-27T07:02:14.510Z,16.23
2018-11-27T07:04:37.233Z,17.13
2018-11-27T07:06:59.933Z,16.03
2018-11-27T07:09:23.039Z,16.37
2018-11-27T07:11:45.766Z,15.23
2018-11-27T07:14:08.447Z,16.57
2018-11-27T08:02:38.186Z,16.83
2018-11-27T08:05:00.930Z,15.60
2018-11-27T08:07:23.675Z,16.43
2018-11-27T08:09:46.378Z,17.37
2018-11-27T08:12:09.073Z,17.07
2018-11-27T08:14:31.738Z,17.23
2018-11-27T09:00:15.898Z,16.23
2018-11-27T09:02:38.570Z,16.30
2018-11-27T09:05:01.249Z,17.60
2018-11-27T09:07:23.920Z,17.07
2018-11-27T09:09:46.597Z,17.13
2018-11-27T09:12:09.285Z,17.50
2018-11-27T09:14:31.941Z,17.50
2018-11-27T10:00:17.963Z,15.97
2018-11-27T10:02:40.661Z,16.37
2018-11-27T10:05:03.481Z,17.37
2018-11-27T10:10:24.805Z,16.67
2018-11-27T10:12:47.504Z,17.30
2018-11-27T11:01:31.878Z,16.67
2018-11-27T11:03:54.558Z,15.17
2018-11-27T11:06:17.222Z,16.47
2018-11-27T11:08:39.929Z,17.10
2018-11-27T11:11:02.645Z,16.27
2018-11-27T11:13:25.287Z,16.77
2018-11-27T12:02:05.037Z,15.70
2018-11-27T12:04:27.741Z,17.17
2018-11-27T12:06:50.382Z,16.03
2018-11-27T12:09:13.158Z,16.33
2018-11-27T12:11:35.839Z,16.13
2018-11-27T12:13:58.489Z,16.10
2018-11-27T13:02:36.737Z,17.00
2018-11-27T13:04:59.477Z,16.27
2018-11-27T13:07:22.149Z,18.10
2018-11-27T13:09:44.818Z,17.70
2018-11-27T13:12:07.526Z,18.93
2018-11-27T13:14:30.182Z,18.77
2018-11-27T14:00:17.902Z,17.93
2018-11-27T14:02:41.862Z,16.63
2018-11-27T14:05:07.142Z,17.07
2018-11-27T14:07:29.881Z,18.57
2018-11-27T14:09:52.539Z,17.80
2018-11-27T14:12:15.215Z,18.37
2018-11-27T14:14:37.920Z,23.13
2018-11-27T15:00:18.243Z,18.13
2018-11-27T15:02:40.954Z,17.70
2018-11-27T15:05:03.911Z,17.77
2018-11-27T15:07:26.574Z,19.03
2018-11-27T15:09:49.253Z,19.23
2018-11-27T15:12:11.959Z,18.33
2018-11-27T15:14:34.661Z,19.20
2018-11-27T16:00:19.478Z,17.73
2018-11-27T16:02:43.017Z,19.53
2018-11-27T16:05:05.880Z,18.97
2018-11-27T16:07:28.542Z,19.93
2018-11-27T16:09:51.206Z,18.97
2018-11-27T16:12:14.071Z,19.63
2018-11-27T16:14:36.821Z,22.03
2018-11-27T17:00:15.397Z,24.90
2018-11-27T17:02:38.138Z,22.20
2018-11-27T17:05:00.873Z,22.43
2018-11-27T17:07:23.573Z,21.03
2018-11-27T17:09:46.297Z,19.97
2018-11-27T17:12:08.969Z,20.03
2018-11-27T17:14:31.641Z,18.17
2018-11-27T18:00:23.371Z,24.07
2018-11-27T18:02:48.733Z,22.90
2018-11-27T18:05:11.405Z,24.00
2018-11-27T18:07:34.783Z,23.37
2018-11-27T18:31:12.141Z,24.37
2018-11-27T18:33:35.129Z,23.50
2018-11-27T18:35:58.018Z,23.50
2018-11-27T18:38:20.960Z,23.87
2018-11-27T18:40:43.925Z,21.90
2018-11-27T18:43:06.866Z,21.67
2018-11-27T18:45:31.080Z,23.47
2018-11-27T18:47:53.910Z,23.03
2018-11-27T18:50:16.831Z,23.43
2018-11-27T18:52:39.958Z,21.93
2018-11-27T18:55:02.788Z,23.57
2018-11-27T18:57:25.564Z,24.03
2018-11-27T18:59:48.394Z,23.40
2018-11-27T19:02:11.172Z,23.40
2018-11-27T19:04:33.920Z,24.07
2018-11-27T19:06:56.601Z,23.13
2018-11-27T19:09:19.358Z,23.83
2018-11-27T19:11:42.149Z,24.17
2018-11-27T19:14:05.456Z,24.43
2018-11-27T19:16:28.229Z,23.10
2018-11-27T20:07:43.277Z,26.43
2018-11-27T20:10:08.193Z,27.20
2018-11-27T20:12:30.987Z,24.83
2018-11-27T20:14:53.776Z,25.03
2018-11-27T21:00:32.865Z,23.20
2018-11-27T21:02:57.514Z,22.80
2018-11-27T21:05:20.237Z,24.20
2018-11-27T21:07:42.921Z,24.40
2018-11-27T21:10:09.386Z,23.63
2018-11-27T21:12:32.049Z,25.63
2018-11-27T21:14:54.730Z,24.37
